sensor_id;sensor_type;location;lat;lon;timestamp;pressure;altitude;pressure_sealevel;temperature;humidity
37066;BME280;22981;43.080;25.550;2023-02-26T00:02:02;98292.33;;;14.39;46.62
37066;BME280;22981;43.080;25.550;2023-02-26T00:04:28;98292.02;;;14.71;45.47
37066;BME280;22981;43.080;25.550;2023-02-26T00:06:55;98298.45;;;14.83;45.53
37066;BME280;22981;43.080;25.550;2023-02-26T00:09:22;98316.52;;;14.74;45.85
37066;BME280;22981;43.080;25.550;2023-02-26T00:11:49;98318.63;;;14.88;45.30
37066;BME280;22981;43.080;25.550;2023-02-26T00:14:16;98292.66;;;15.07;44.61
37066;BME280;22981;43.080;25.550;2023-02-26T00:16:44;98301.25;;;15.17;44.26
37066;BME280;22981;43.080;25.550;2023-02-26T00:19:11;98297.14;;;15.30;43.93
37066;BME280;22981;43.080;25.550;2023-02-26T00:21:38;98305.99;;;15.38;43.57
37066;BME280;22981;43.080;25.550;2023-02-26T00:24:05;98302.97;;;15.47;43.37
37066;BME280;22981;43.080;25.550;2023-02-26T00:26:33;98300.74;;;15.54;43.03
37066;BME280;22981;43.080;25.550;2023-02-26T00:29:00;98301.58;;;15.55;43.20
37066;BME280;22981;43.080;25.550;2023-02-26T00:31:28;98304.31;;;15.47;43.36
37066;BME280;22981;43.080;25.550;2023-02-26T00:33:55;98293.52;;;15.47;43.32
37066;BME280;22981;43.080;25.550;2023-02-26T00:36:23;98306.47;;;15.47;43.34
37066;BME280;22981;43.080;25.550;2023-02-26T00:38:56;98298.34;;;15.50;43.30
37066;BME280;22981;43.080;25.550;2023-02-26T00:41:22;98305.38;;;15.46;43.28
37066;BME280;22981;43.080;25.550;2023-02-26T00:43:49;98304.28;;;15.49;43.20
37066;BME280;22981;43.080;25.550;2023-02-26T00:49:02;98305.41;;;15.43;43.34
37066;BME280;22981;43.080;25.550;2023-02-26T00:54:20;98306.25;;;15.39;43.30
37066;BME280;22981;43.080;25.550;2023-02-26T00:56:48;98313.25;;;15.42;43.27
37066;BME280;22981;43.080;25.550;2023-02-26T00:59:15;98316.23;;;15.38;43.28
37066;BME280;22981;43.080;25.550;2023-02-26T01:15:34;98303.22;;;15.50;42.63
37066;BME280;22981;43.080;25.550;2023-02-26T01:21:36;98303.89;;;15.71;41.61
37066;BME280;22981;43.080;25.550;2023-02-26T01:23:17;98294.64;;;15.80;41.64
37066;BME280;22981;43.080;25.550;2023-02-26T01:25:49;98305.69;;;15.84;41.40
37066;BME280;22981;43.080;25.550;2023-02-26T01:28:11;98302.38;;;15.92;40.99
37066;BME280;22981;43.080;25.550;2023-02-26T01:30:38;98309.87;;;16.00;40.83
37066;BME280;22981;43.080;25.550;2023-02-26T01:35:57;98316.63;;;16.00;40.52
37066;BME280;22981;43.080;25.550;2023-02-26T01:41:16;98306.47;;;16.18;39.63
37066;BME280;22981;43.080;25.550;2023-02-26T01:46:25;98319.65;;;16.25;39.59
37066;BME280;22981;43.080;25.550;2023-02-26T01:48:51;98329.89;;;16.28;39.27
37066;BME280;22981;43.080;25.550;2023-02-26T01:51:18;98312.52;;;16.37;38.76
37066;BME280;22981;43.080;25.550;2023-02-26T01:53:46;98314.63;;;16.40;38.55
37066;BME280;22981;43.080;25.550;2023-02-26T01:56:17;98323.02;;;16.41;38.58
37066;BME280;22981;43.080;25.550;2023-02-26T01:58:44;98314.63;;;16.40;38.71
37066;BME280;22981;43.080;25.550;2023-02-26T02:01:12;98339.53;;;16.37;38.55
37066;BME280;22981;43.080;25.550;2023-02-26T02:03:39;98329.28;;;16.36;38.60
37066;BME280;22981;43.080;25.550;2023-02-26T02:06:08;98326.58;;;16.36;38.59
37066;BME280;22981;43.080;25.550;2023-02-26T02:08:36;98315.47;;;16.40;38.27
37066;BME280;22981;43.080;25.550;2023-02-26T02:11:03;98324.31;;;16.46;38.08
37066;BME280;22981;43.080;25.550;2023-02-26T02:16:24;98334.63;;;16.39;38.37
37066;BME280;22981;43.080;25.550;2023-02-26T02:24:04;98333.76;;;16.17;39.07
37066;BME280;22981;43.080;25.550;2023-02-26T02:26:39;98332.17;;;16.13;39.04
37066;BME280;22981;43.080;25.550;2023-02-26T02:29:16;98339.97;;;16.17;38.76
37066;BME280;22981;43.080;25.550;2023-02-26T02:31:42;98335.95;;;16.15;38.95
37066;BME280;22981;43.080;25.550;2023-02-26T02:34:12;98342.47;;;16.09;39.20
37066;BME280;22981;43.080;25.550;2023-02-26T02:36:44;98341.21;;;15.98;39.48
37066;BME280;22981;43.080;25.550;2023-02-26T02:39:14;98336.17;;;15.84;39.91
37066;BME280;22981;43.080;25.550;2023-02-26T02:41:43;98338.16;;;15.71;40.33
37066;BME280;22981;43.080;25.550;2023-02-26T02:44:11;98330.66;;;15.60;40.66
37066;BME280;22981;43.080;25.550;2023-02-26T02:46:38;98334.23;;;15.50;41.04
37066;BME280;22981;43.080;25.550;2023-02-26T02:49:14;98349.11;;;15.43;41.30
37066;BME280;22981;43.080;25.550;2023-02-26T02:51:45;98350.23;;;15.34;41.69
37066;BME280;22981;43.080;25.550;2023-02-26T02:56:39;98358.93;;;15.18;42.24
37066;BME280;22981;43.080;25.550;2023-02-26T02:59:17;98357.89;;;15.12;42.45
37066;BME280;22981;43.080;25.550;2023-02-26T03:01:34;98368.13;;;15.07;42.64
37066;BME280;22981;43.080;25.550;2023-02-26T03:04:03;98369.76;;;15.03;42.88
37066;BME280;22981;43.080;25.550;2023-02-26T03:06:29;98375.17;;;14.98;42.93
37066;BME280;22981;43.080;25.550;2023-02-26T03:08:56;98374.11;;;14.94;43.07
37066;BME280;22981;43.080;25.550;2023-02-26T03:11:23;98386.52;;;14.90;43.14
37066;BME280;22981;43.080;25.550;2023-02-26T03:13:50;98379.55;;;14.86;43.25
37066;BME280;22981;43.080;25.550;2023-02-26T03:21:44;98391.42;;;14.77;43.63
37066;BME280;22981;43.080;25.550;2023-02-26T03:26:50;98385.50;;;14.70;43.89
37066;BME280;22981;43.080;25.550;2023-02-26T03:29:25;98379.02;;;14.71;43.94
37066;BME280;22981;43.080;25.550;2023-02-26T03:31:52;98385.20;;;14.77;43.96
37066;BME280;22981;43.080;25.550;2023-02-26T03:34:25;98385.98;;;14.85;43.82
37066;BME280;22981;43.080;25.550;2023-02-26T03:36:56;98384.66;;;14.90;43.75
37066;BME280;22981;43.080;25.550;2023-02-26T03:39:27;98394.60;;;14.92;43.80
37066;BME280;22981;43.080;25.550;2023-02-26T03:44:32;98399.73;;;14.91;44.05
37066;BME280;22981;43.080;25.550;2023-02-26T03:47:04;98406.73;;;14.92;44.12
37066;BME280;22981;43.080;25.550;2023-02-26T03:49:51;98401.34;;;14.95;44.41
37066;BME280;22981;43.080;25.550;2023-02-26T03:52:17;98412.12;;;14.95;44.62
37066;BME280;22981;43.080;25.550;2023-02-26T03:54:47;98400.80;;;14.95;44.74
37066;BME280;22981;43.080;25.550;2023-02-26T03:57:13;98399.73;;;14.91;44.96
37066;BME280;22981;43.080;25.550;2023-02-26T03:59:40;98394.34;;;14.91;44.93
37066;BME280;22981;43.080;25.550;2023-02-26T04:02:10;98392.71;;;14.93;44.89
37066;BME280;22981;43.080;25.550;2023-02-26T04:07:16;98391.91;;;14.90;44.87
37066;BME280;22981;43.080;25.550;2023-02-26T04:09:44;98402.68;;;14.90;44.93
37066;BME280;22981;43.080;25.550;2023-02-26T04:12:12;98397.86;;;14.87;45.00
37066;BME280;22981;43.080;25.550;2023-02-26T04:14:38;98401.37;;;14.82;45.11
37066;BME280;22981;43.080;25.550;2023-02-26T04:17:05;98393.83;;;14.79;45.18
37066;BME280;22981;43.080;25.550;2023-02-26T04:19:32;98387.07;;;14.82;45.17
37066;BME280;22981;43.080;25.550;2023-02-26T04:21:59;98380.34;;;14.82;45.22
37066;BME280;22981;43.080;25.550;2023-02-26T04:24:26;98376.03;;;14.81;45.20
37066;BME280;22981;43.080;25.550;2023-02-26T04:26:52;98366.87;;;14.84;45.08
37066;BME280;22981;43.080;25.550;2023-02-26T04:29:19;98386.25;;;14.89;44.96
37066;BME280;22981;43.080;25.550;2023-02-26T04:31:46;98370.06;;;14.96;44.70
37066;BME280;22981;43.080;25.550;2023-02-26T04:34:13;98382.72;;;15.01;44.46
37066;BME280;22981;43.080;25.550;2023-02-26T04:36:40;98378.94;;;15.05;44.30
37066;BME280;22981;43.080;25.550;2023-02-26T04:39:07;98389.70;;;15.10;44.21
37066;BME280;22981;43.080;25.550;2023-02-26T04:41:35;98388.63;;;15.08;44.29
37066;BME280;22981;43.080;25.550;2023-02-26T04:44:02;98396.71;;;15.03;44.38
37066;BME280;22981;43.080;25.550;2023-02-26T04:46:29;98395.65;;;15.01;44.39
37066;BME280;22981;43.080;25.550;2023-02-26T04:48:56;98398.89;;;15.01;44.44
37066;BME280;22981;43.080;25.550;2023-02-26T04:51:23;98400.78;;;15.00;44.40
37066;BME280;22981;43.080;25.550;2023-02-26T04:53:50;98398.88;;;14.98;44.49
37066;BME280;22981;43.080;25.550;2023-02-26T04:56:17;98404.02;;;14.97;44.53
37066;BME280;22981;43.080;25.550;2023-02-26T04:58:44;98400.52;;;14.94;44.66
37066;BME280;22981;43.080;25.550;2023-02-26T05:01:11;98404.86;;;14.90;45.05
37066;BME280;22981;43.080;25.550;2023-02-26T05:03:39;98399.75;;;14.84;45.43
37066;BME280;22981;43.080;25.550;2023-02-26T05:06:05;98385.20;;;14.77;45.76
37066;BME280;22981;43.080;25.550;2023-02-26T05:08:32;98391.95;;;14.72;46.13
37066;BME280;22981;43.080;25.550;2023-02-26T05:10:59;98393.59;;;14.65;46.50
37066;BME280;22981;43.080;25.550;2023-02-26T05:13:26;98391.72;;;14.61;47.00
37066;BME280;22981;43.080;25.550;2023-02-26T05:15:53;98389.82;;;14.59;47.53
37066;BME280;22981;43.080;25.550;2023-02-26T05:18:19;98381.77;;;14.56;47.84
37066;BME280;22981;43.080;25.550;2023-02-26T05:20:50;98392.25;;;14.58;47.94
37066;BME280;22981;43.080;25.550;2023-02-26T05:23:14;98388.48;;;14.53;48.07
37066;BME280;22981;43.080;25.550;2023-02-26T05:25:41;98396.84;;;14.49;48.71
37066;BME280;22981;43.080;25.550;2023-02-26T05:28:08;98405.71;;;14.47;48.75
37066;BME280;22981;43.080;25.550;2023-02-26T05:30:35;98407.85;;;14.45;48.92
37066;BME280;22981;43.080;25.550;2023-02-26T05:33:02;98416.48;;;14.47;49.37
37066;BME280;22981;43.080;25.550;2023-02-26T05:35:28;98406.50;;;14.45;49.57
37066;BME280;22981;43.080;25.550;2023-02-26T05:37:55;98412.44;;;14.45;49.75
37066;BME280;22981;43.080;25.550;2023-02-26T05:40:22;98416.75;;;14.43;49.67
37066;BME280;22981;43.080;25.550;2023-02-26T05:42:49;98410.53;;;14.43;50.00
37066;BME280;22981;43.080;25.550;2023-02-26T05:45:16;98416.46;;;14.42;50.35
37066;BME280;22981;43.080;25.550;2023-02-26T05:47:43;98416.74;;;14.41;50.79
37066;BME280;22981;43.080;25.550;2023-02-26T05:50:10;98427.80;;;14.39;51.08
37066;BME280;22981;43.080;25.550;2023-02-26T05:52:37;98422.92;;;14.39;51.14
37066;BME280;22981;43.080;25.550;2023-02-26T05:55:04;98420.51;;;14.37;51.37
37066;BME280;22981;43.080;25.550;2023-02-26T05:57:31;98414.58;;;14.38;51.31
37066;BME280;22981;43.080;25.550;2023-02-26T05:59:58;98428.31;;;14.41;51.44
37066;BME280;22981;43.080;25.550;2023-02-26T06:02:25;98415.67;;;14.44;51.25
37066;BME280;22981;43.080;25.550;2023-02-26T06:04:53;98432.34;;;14.46;51.36
37066;BME280;22981;43.080;25.550;2023-02-26T06:07:21;98435.34;;;14.47;51.44
37066;BME280;22981;43.080;25.550;2023-02-26T06:09:49;98437.78;;;14.49;51.73
37066;BME280;22981;43.080;25.550;2023-02-26T06:12:16;98437.78;;;14.49;51.58
37066;BME280;22981;43.080;25.550;2023-02-26T06:14:43;98435.89;;;14.49;51.69
37066;BME280;22981;43.080;25.550;2023-02-26T06:17:10;98441.80;;;14.51;51.71
37066;BME280;22981;43.080;25.550;2023-02-26T06:19:37;98439.39;;;14.52;51.81
37066;BME280;22981;43.080;25.550;2023-02-26T06:22:03;98435.36;;;14.52;51.75
37066;BME280;22981;43.080;25.550;2023-02-26T06:24:30;98477.63;;;14.55;52.10
37066;BME280;22981;43.080;25.550;2023-02-26T06:26:57;98455.53;;;14.60;52.47
37066;BME280;22981;43.080;25.550;2023-02-26T06:29:24;98461.20;;;14.61;52.58
37066;BME280;22981;43.080;25.550;2023-02-26T06:31:50;98477.89;;;14.63;53.07
37066;BME280;22981;43.080;25.550;2023-02-26T06:34:17;98490.57;;;14.65;53.05
37066;BME280;22981;43.080;25.550;2023-02-26T06:36:44;98478.98;;;14.70;53.49
37066;BME280;22981;43.080;25.550;2023-02-26T06:39:11;98490.83;;;14.71;53.66
37066;BME280;22981;43.080;25.550;2023-02-26T06:41:38;98472.77;;;14.72;53.68
37066;BME280;22981;43.080;25.550;2023-02-26T06:44:04;98466.59;;;14.74;53.87
37066;BME280;22981;43.080;25.550;2023-02-26T06:46:31;98472.23;;;14.75;53.97
37066;BME280;22981;43.080;25.550;2023-02-26T06:48:58;98463.89;;;14.74;54.08
37066;BME280;22981;43.080;25.550;2023-02-26T06:51:25;98471.69;;;14.75;54.12
37066;BME280;22981;43.080;25.550;2023-02-26T06:53:52;98459.83;;;14.76;53.94
37066;BME280;22981;43.080;25.550;2023-02-26T06:56:19;98469.27;;;14.79;54.11
37066;BME280;22981;43.080;25.550;2023-02-26T06:58:45;98469.53;;;14.80;54.09
37066;BME280;22981;43.080;25.550;2023-02-26T07:01:12;98460.11;;;14.83;53.97
37066;BME280;22981;43.080;25.550;2023-02-26T07:03:39;98461.73;;;14.86;53.99
37066;BME280;22981;43.080;25.550;2023-02-26T07:06:06;98461.16;;;14.89;54.20
37066;BME280;22981;43.080;25.550;2023-02-26T07:08:33;98465.20;;;14.89;54.26
37066;BME280;22981;43.080;25.550;2023-02-26T07:11:00;98466.82;;;14.93;54.25
37066;BME280;22981;43.080;25.550;2023-02-26T07:13:27;98439.59;;;14.97;54.19
37066;BME280;22981;43.080;25.550;2023-02-26T07:15:54;98444.45;;;15.00;54.16
37066;BME280;22981;43.080;25.550;2023-02-26T07:18:21;98444.43;;;15.05;54.01
37066;BME280;22981;43.080;25.550;2023-02-26T07:20:48;98446.05;;;15.09;54.01
37066;BME280;22981;43.080;25.550;2023-02-26T07:23:15;98437.13;;;15.13;53.96
37066;BME280;22981;43.080;25.550;2023-02-26T07:25:41;98457.61;;;15.17;53.98
37066;BME280;22981;43.080;25.550;2023-02-26T07:28:08;98453.00;;;15.20;54.06
37066;BME280;22981;43.080;25.550;2023-02-26T07:30:35;98451.40;;;15.21;54.13
37066;BME280;22981;43.080;25.550;2023-02-26T07:33:02;98459.46;;;15.24;53.96
37066;BME280;22981;43.080;25.550;2023-02-26T07:35:29;98448.39;;;15.28;53.87
37066;BME280;22981;43.080;25.550;2023-02-26T07:37:55;98441.11;;;15.31;53.91
37066;BME280;22981;43.080;25.550;2023-02-26T07:40:22;98439.22;;;15.34;53.84
37066;BME280;22981;43.080;25.550;2023-02-26T07:42:49;98420.06;;;15.38;53.67
37066;BME280;22981;43.080;25.550;2023-02-26T07:45:16;98418.97;;;15.42;53.48
37066;BME280;22981;43.080;25.550;2023-02-26T07:47:44;98409.22;;;15.48;53.35
37066;BME280;22981;43.080;25.550;2023-02-26T07:50:11;98401.09;;;15.53;53.17
37066;BME280;22981;43.080;25.550;2023-02-26T07:52:38;98397.30;;;15.60;52.98
37066;BME280;22981;43.080;25.550;2023-02-26T07:55:05;98388.40;;;15.64;52.64
37066;BME280;22981;43.080;25.550;2023-02-26T07:57:32;98391.32;;;15.70;52.46
37066;BME280;22981;43.080;25.550;2023-02-26T07:59:58;98395.88;;;15.75;52.19
37066;BME280;22981;43.080;25.550;2023-02-26T08:02:25;98375.08;;;15.81;51.95
37066;BME280;22981;43.080;25.550;2023-02-26T08:04:52;98380.16;;;15.87;51.72
37066;BME280;22981;43.080;25.550;2023-02-26T08:07:19;98378.77;;;15.92;51.52
37066;BME280;22981;43.080;25.550;2023-02-26T08:09:46;98373.86;;;15.99;50.99
37066;BME280;22981;43.080;25.550;2023-02-26T08:12:12;98369.77;;;16.05;50.76
37066;BME280;22981;43.080;25.550;2023-02-26T08:14:39;98368.11;;;16.11;50.25
37066;BME280;22981;43.080;25.550;2023-02-26T08:17:09;98361.31;;;16.16;49.91
37066;BME280;22981;43.080;25.550;2023-02-26T08:19:36;98357.21;;;16.21;49.99
37066;BME280;22981;43.080;25.550;2023-02-26T08:22:05;98362.02;;;16.27;49.82
37066;BME280;22981;43.080;25.550;2023-02-26T08:24:34;98356.59;;;16.32;49.69
37066;BME280;22981;43.080;25.550;2023-02-26T08:27:02;98355.98;;;16.38;49.38
37066;BME280;22981;43.080;25.550;2023-02-26T08:29:29;98379.95;;;16.44;48.55
37066;BME280;22981;43.080;25.550;2023-02-26T08:31:56;98363.98;;;16.50;48.17
37066;BME280;22981;43.080;25.550;2023-02-26T08:34:22;98369.86;;;16.58;47.44
37066;BME280;22981;43.080;25.550;2023-02-26T08:36:49;98370.31;;;16.65;47.27
37066;BME280;22981;43.080;25.550;2023-02-26T08:39:16;98361.33;;;16.72;46.73
37066;BME280;22981;43.080;25.550;2023-02-26T08:41:43;98373.16;;;16.78;46.06
37066;BME280;22981;43.080;25.550;2023-02-26T08:44:10;98362.83;;;16.86;45.81
37066;BME280;22981;43.080;25.550;2023-02-26T08:46:36;98358.44;;;16.92;45.25
37066;BME280;22981;43.080;25.550;2023-02-26T08:49:03;98359.96;;;17.01;44.66
37066;BME280;22981;43.080;25.550;2023-02-26T08:51:30;98373.40;;;17.09;44.53
37066;BME280;22981;43.080;25.550;2023-02-26T08:53:57;98373.81;;;17.18;43.72
37066;BME280;22981;43.080;25.550;2023-02-26T08:56:24;98381.00;;;17.25;43.15
37066;BME280;22981;43.080;25.550;2023-02-26T08:58:51;98366.29;;;17.34;42.62
37066;BME280;22981;43.080;25.550;2023-02-26T09:01:17;98359.75;;;17.38;42.86
37066;BME280;22981;43.080;25.550;2023-02-26T09:03:44;98375.91;;;17.43;42.97
37066;BME280;22981;43.080;25.550;2023-02-26T09:06:11;98352.07;;;17.47;42.48
37066;BME280;22981;43.080;25.550;2023-02-26T09:08:38;98352.80;;;17.53;42.21
37066;BME280;22981;43.080;25.550;2023-02-26T09:11:04;98356.61;;;17.52;42.84
37066;BME280;22981;43.080;25.550;2023-02-26T09:13:31;98357.16;;;17.51;43.39
37066;BME280;22981;43.080;25.550;2023-02-26T09:15:58;98364.89;;;17.58;43.15
37066;BME280;22981;43.080;25.550;2023-02-26T09:18:25;98344.68;;;17.53;43.50
37066;BME280;22981;43.080;25.550;2023-02-26T09:20:52;98353.63;;;17.51;43.85
37066;BME280;22981;43.080;25.550;2023-02-26T09:23:18;98347.14;;;17.52;43.61
37066;BME280;22981;43.080;25.550;2023-02-26T09:25:45;98382.01;;;17.53;43.70
37066;BME280;22981;43.080;25.550;2023-02-26T09:28:14;98347.55;;;17.59;43.57
37066;BME280;22981;43.080;25.550;2023-02-26T09:30:40;98359.16;;;17.62;43.43
37066;BME280;22981;43.080;25.550;2023-02-26T09:33:07;98341.27;;;17.64;43.22
37066;BME280;22981;43.080;25.550;2023-02-26T09:35:34;98357.25;;;17.63;43.40
37066;BME280;22981;43.080;25.550;2023-02-26T09:38:01;98339.88;;;17.66;43.20
37066;BME280;22981;43.080;25.550;2023-02-26T09:40:35;98348.78;;;17.69;43.27
37066;BME280;22981;43.080;25.550;2023-02-26T09:45:44;98346.27;;;17.75;43.40
37066;BME280;22981;43.080;25.550;2023-02-26T09:48:13;98354.95;;;17.75;43.87
37066;BME280;22981;43.080;25.550;2023-02-26T09:50:43;98376.05;;;17.75;43.86
37066;BME280;22981;43.080;25.550;2023-02-26T09:53:11;98381.44;;;17.78;44.01
37066;BME280;22981;43.080;25.550;2023-02-26T09:55:42;98420.41;;;17.77;43.98
37066;BME280;22981;43.080;25.550;2023-02-26T09:58:10;98373.31;;;17.78;44.01
37066;BME280;22981;43.080;25.550;2023-02-26T10:00:36;98378.73;;;17.78;43.76
37066;BME280;22981;43.080;25.550;2023-02-26T10:08:36;98419.20;;;17.86;44.25
37066;BME280;22981;43.080;25.550;2023-02-26T10:11:06;98436.28;;;17.86;43.89
37066;BME280;22981;43.080;25.550;2023-02-26T10:16:08;98415.04;;;17.93;43.55
37066;BME280;22981;43.080;25.550;2023-02-26T10:18:33;98426.67;;;17.94;44.24
37066;BME280;22981;43.080;25.550;2023-02-26T10:21:02;98419.02;;;17.98;44.12
37066;BME280;22981;43.080;25.550;2023-02-26T10:23:50;98425.99;;;18.05;43.75
37066;BME280;22981;43.080;25.550;2023-02-26T10:34:03;98411.04;;;18.07;43.67
37066;BME280;22981;43.080;25.550;2023-02-26T10:36:28;98413.83;;;18.02;43.55
37066;BME280;22981;43.080;25.550;2023-02-26T10:39:02;98400.90;;;17.99;43.89
37066;BME280;22981;43.080;25.550;2023-02-26T10:41:30;98389.20;;;18.01;43.74
37066;BME280;22981;43.080;25.550;2023-02-26T10:44:17;98372.46;;;17.99;43.88
37066;BME280;22981;43.080;25.550;2023-02-26T10:46:53;98428.03;;;17.94;43.76
37066;BME280;22981;43.080;25.550;2023-02-26T10:49:31;98412.41;;;17.88;43.74
37066;BME280;22981;43.080;25.550;2023-02-26T10:51:56;98402.44;;;17.86;44.05
37066;BME280;22981;43.080;25.550;2023-02-26T10:54:32;98416.23;;;17.87;44.34
37066;BME280;22981;43.080;25.550;2023-02-26T10:56:58;98399.45;;;17.85;44.11
37066;BME280;22981;43.080;25.550;2023-02-26T10:59:26;98429.29;;;17.83;44.47
37066;BME280;22981;43.080;25.550;2023-02-26T11:01:53;98411.96;;;17.81;44.41
37066;BME280;22981;43.080;25.550;2023-02-26T11:04:21;98408.55;;;17.73;44.44
37066;BME280;22981;43.080;25.550;2023-02-26T11:06:50;98417.02;;;17.66;44.83
37066;BME280;22981;43.080;25.550;2023-02-26T11:12:03;98421.53;;;17.73;44.83
37066;BME280;22981;43.080;25.550;2023-02-26T11:14:22;98425.25;;;17.80;44.57
37066;BME280;22981;43.080;25.550;2023-02-26T11:16:54;98429.45;;;17.89;44.33
37066;BME280;22981;43.080;25.550;2023-02-26T11:19:34;98419.71;;;17.90;44.38
37066;BME280;22981;43.080;25.550;2023-02-26T11:21:56;98420.91;;;18.00;44.01
37066;BME280;22981;43.080;25.550;2023-02-26T11:26:53;98408.30;;;18.29;43.95
37066;BME280;22981;43.080;25.550;2023-02-26T11:29:21;98421.08;;;18.42;43.33
37066;BME280;22981;43.080;25.550;2023-02-26T11:31:53;98391.39;;;18.50;43.21
37066;BME280;22981;43.080;25.550;2023-02-26T11:34:17;98412.98;;;18.56;43.27
37066;BME280;22981;43.080;25.550;2023-02-26T11:36:44;98423.61;;;18.68;43.15
37066;BME280;22981;43.080;25.550;2023-02-26T11:39:15;98401.36;;;18.71;42.65
37066;BME280;22981;43.080;25.550;2023-02-26T11:41:43;98407.90;;;18.68;42.74
37066;BME280;22981;43.080;25.550;2023-02-26T11:44:15;98402.14;;;18.56;42.84
37066;BME280;22981;43.080;25.550;2023-02-26T11:46:45;98384.00;;;18.53;42.89
37066;BME280;22981;43.080;25.550;2023-02-26T11:49:14;98428.35;;;18.60;42.84
37066;BME280;22981;43.080;25.550;2023-02-26T11:51:44;98405.09;;;18.57;42.77
37066;BME280;22981;43.080;25.550;2023-02-26T11:54:26;98407.37;;;18.49;42.84
37066;BME280;22981;43.080;25.550;2023-02-26T11:56:47;98371.78;;;18.40;42.92
37066;BME280;22981;43.080;25.550;2023-02-26T11:59:18;98421.45;;;18.35;42.68
37066;BME280;22981;43.080;25.550;2023-02-26T12:01:46;98398.29;;;18.26;42.87
37066;BME280;22981;43.080;25.550;2023-02-26T12:04:14;98415.19;;;18.21;43.09
37066;BME280;22981;43.080;25.550;2023-02-26T12:06:41;98390.83;;;18.18;42.88
37066;BME280;22981;43.080;25.550;2023-02-26T12:09:11;98406.25;;;18.20;42.93
37066;BME280;22981;43.080;25.550;2023-02-26T12:14:26;98404.72;;;18.31;42.44
37066;BME280;22981;43.080;25.550;2023-02-26T12:38:05;98415.17;;;18.86;40.81
37066;BME280;22981;43.080;25.550;2023-02-26T12:46:18;98439.92;;;18.14;42.34
37066;BME280;22981;43.080;25.550;2023-02-26T12:49:18;98439.06;;;18.00;42.58
37066;BME280;22981;43.080;25.550;2023-02-26T12:58:01;98433.23;;;17.69;43.40
37066;BME280;22981;43.080;25.550;2023-02-26T13:08:51;98442.83;;;17.59;43.67
37066;BME280;22981;43.080;25.550;2023-02-26T13:11:25;98407.37;;;17.60;43.74
37066;BME280;22981;43.080;25.550;2023-02-26T13:13:54;98395.39;;;17.64;43.86
37066;BME280;22981;43.080;25.550;2023-02-26T13:16:51;98404.52;;;17.70;43.97
37066;BME280;22981;43.080;25.550;2023-02-26T13:19:22;98394.80;;;17.69;43.82
37066;BME280;22981;43.080;25.550;2023-02-26T13:45:47;98360.47;;;17.86;42.41
37066;BME280;22981;43.080;25.550;2023-02-26T13:51:24;98394.19;;;17.72;42.50
37066;BME280;22981;43.080;25.550;2023-02-26T13:53:53;98411.28;;;17.70;42.45
37066;BME280;22981;43.080;25.550;2023-02-26T14:01:57;98420.67;;;17.57;42.91
37066;BME280;22981;43.080;25.550;2023-02-26T14:04:31;98429.36;;;17.53;43.00
37066;BME280;22981;43.080;25.550;2023-02-26T14:07:13;98432.09;;;17.51;43.24
37066;BME280;22981;43.080;25.550;2023-02-26T14:10:02;98440.52;;;17.49;43.16
37066;BME280;22981;43.080;25.550;2023-02-26T14:12:37;98442.18;;;17.45;43.27
37066;BME280;22981;43.080;25.550;2023-02-26T14:15:17;98416.50;;;17.43;43.31
37066;BME280;22981;43.080;25.550;2023-02-26T14:17:49;98408.98;;;17.40;43.29
37066;BME280;22981;43.080;25.550;2023-02-26T14:20:29;98402.79;;;17.37;43.58
37066;BME280;22981;43.080;25.550;2023-02-26T14:23:12;98401.76;;;17.33;43.64
37066;BME280;22981;43.080;25.550;2023-02-26T14:25:48;98415.33;;;17.30;43.69
37066;BME280;22981;43.080;25.550;2023-02-26T14:31:12;98421.02;;;17.28;43.69
37066;BME280;22981;43.080;25.550;2023-02-26T14:34:13;98433.48;;;17.27;43.78
37066;BME280;22981;43.080;25.550;2023-02-26T14:36:53;98429.70;;;17.25;43.75
37066;BME280;22981;43.080;25.550;2023-02-26T14:39:34;98410.26;;;17.23;43.79
37066;BME280;22981;43.080;25.550;2023-02-26T14:42:23;98411.06;;;17.24;43.68
37066;BME280;22981;43.080;25.550;2023-02-26T14:44:45;98419.41;;;17.27;43.28
37066;BME280;22981;43.080;25.550;2023-02-26T14:47:13;98452.42;;;17.27;43.37
37066;BME280;22981;43.080;25.550;2023-02-26T14:49:45;98434.79;;;17.30;42.98
37066;BME280;22981;43.080;25.550;2023-02-26T15:00:48;98508.73;;;17.22;43.17
37066;BME280;22981;43.080;25.550;2023-02-26T15:11:48;98498.55;;;17.12;43.33
37066;BME280;22981;43.080;25.550;2023-02-26T15:22:36;98504.38;;;16.95;43.83
37066;BME280;22981;43.080;25.550;2023-02-26T15:25:02;98507.93;;;16.93;43.87
37066;BME280;22981;43.080;25.550;2023-02-26T15:27:31;98462.29;;;16.86;43.97
37066;BME280;22981;43.080;25.550;2023-02-26T15:30:00;98470.75;;;16.80;44.21
37066;BME280;22981;43.080;25.550;2023-02-26T15:32:29;98479.97;;;16.76;44.34
37066;BME280;22981;43.080;25.550;2023-02-26T15:35:20;98482.14;;;16.71;44.36
37066;BME280;22981;43.080;25.550;2023-02-26T15:37:53;98474.58;;;16.71;44.39
37066;BME280;22981;43.080;25.550;2023-02-26T15:40:23;98479.99;;;16.68;44.39
37066;BME280;22981;43.080;25.550;2023-02-26T15:42:54;98486.24;;;16.66;44.53
37066;BME280;22981;43.080;25.550;2023-02-26T15:45:37;98487.09;;;16.62;44.63
37066;BME280;22981;43.080;25.550;2023-02-26T15:48:17;98485.50;;;16.58;44.77
37066;BME280;22981;43.080;25.550;2023-02-26T15:50:37;98529.53;;;16.56;44.72
37066;BME280;22981;43.080;25.550;2023-02-26T15:53:09;98531.43;;;16.58;44.76
37066;BME280;22981;43.080;25.550;2023-02-26T15:55:42;98510.37;;;16.55;44.87
37066;BME280;22981;43.080;25.550;2023-02-26T15:58:07;98543.09;;;16.48;44.99
37066;BME280;22981;43.080;25.550;2023-02-26T16:00:36;98541.48;;;16.47;45.03
37066;BME280;22981;43.080;25.550;2023-02-26T16:03:04;98531.23;;;16.44;45.19